sensor_id;sensor_type;location;lat;lon;timestamp;temperature;humidity
30290;DHT22;17105;55.652;37.710;2023-04-25T00:00:23;16.10;45.00
30290;DHT22;17105;55.652;37.710;2023-04-25T00:00:57;16.10;45.20
30290;DHT22;17105;55.652;37.710;2023-04-25T00:01:32;16.10;45.60
30290;DHT22;17105;55.652;37.710;2023-04-25T00:02:09;16.10;45.00
30290;DHT22;17105;55.652;37.710;2023-04-25T00:02:43;16.10;45.00
30290;DHT22;17105;55.652;37.710;2023-04-25T00:03:20;16.10;45.00
30290;DHT22;17105;55.652;37.710;2023-04-25T00:03:59;16.00;44.90
30290;DHT22;17105;55.652;37.710;2023-04-25T00:04:34;16.00;44.90
30290;DHT22;17105;55.652;37.710;2023-04-25T00:05:12;16.00;44.90
30290;DHT22;17105;55.652;37.710;2023-04-25T00:05:48;16.00;44.90
30290;DHT22;17105;55.652;37.710;2023-04-25T00:06:27;15.90;44.80
30290;DHT22;17105;55.652;37.710;2023-04-25T00:07:03;16.00;45.00
30290;DHT22;17105;55.652;37.710;2023-04-25T00:07:38;16.00;45.00
30290;DHT22;17105;55.652;37.710;2023-04-25T00:08:11;16.00;45.00
30290;DHT22;17105;55.652;37.710;2023-04-25T00:08:47;16.00;45.00
30290;DHT22;17105;55.652;37.710;2023-04-25T00:09:20;16.00;45.10
30290;DHT22;17105;55.652;37.710;2023-04-25T00:09:54;16.00;45.10
30290;DHT22;17105;55.652;37.710;2023-04-25T00:10:28;16.00;45.20
30290;DHT22;17105;55.652;37.710;2023-04-25T00:11:01;16.00;45.20
30290;DHT22;17105;55.652;37.710;2023-04-25T00:11:36;16.00;45.20
30290;DHT22;17105;55.652;37.710;2023-04-25T00:12:11;15.90;45.20
30290;DHT22;17105;55.652;37.710;2023-04-25T00:12:45;15.90;45.20
30290;DHT22;17105;55.652;37.710;2023-04-25T00:13:21;15.90;45.20
30290;DHT22;17105;55.652;37.710;2023-04-25T00:13:58;15.90;45.30
30290;DHT22;17105;55.652;37.710;2023-04-25T00:14:32;15.90;45.30
30290;DHT22;17105;55.652;37.710;2023-04-25T00:15:11;15.90;45.20
30290;DHT22;17105;55.652;37.710;2023-04-25T00:15:46;15.90;45.40
30290;DHT22;17105;55.652;37.710;2023-04-25T00:16:22;15.80;45.50
30290;DHT22;17105;55.652;37.710;2023-04-25T00:16:57;15.80;45.50
30290;DHT22;17105;55.652;37.710;2023-04-25T00:17:32;15.80;45.40
30290;DHT22;17105;55.652;37.710;2023-04-25T00:18:07;15.80;45.50
30290;DHT22;17105;55.652;37.710;2023-04-25T00:18:42;15.80;45.60
30290;DHT22;17105;55.652;37.710;2023-04-25T00:19:16;15.70;45.60
30290;DHT22;17105;55.652;37.710;2023-04-25T00:19:50;15.70;45.70
30290;DHT22;17105;55.652;37.710;2023-04-25T00:20:24;15.70;45.60
30290;DHT22;17105;55.652;37.710;2023-04-25T00:20:58;15.70;45.80
30290;DHT22;17105;55.652;37.710;2023-04-25T00:21:33;15.70;46.00
30290;DHT22;17105;55.652;37.710;2023-04-25T00:22:06;15.60;46.10
30290;DHT22;17105;55.652;37.710;2023-04-25T00:22:40;15.60;46.00
30290;DHT22;17105;55.652;37.710;2023-04-25T00:23:14;15.60;46.20
30290;DHT22;17105;55.652;37.710;2023-04-25T00:23:52;15.50;46.10
30290;DHT22;17105;55.652;37.710;2023-04-25T00:24:24;15.50;46.10
30290;DHT22;17105;55.652;37.710;2023-04-25T00:24:58;15.50;46.20
30290;DHT22;17105;55.652;37.710;2023-04-25T00:25:33;15.50;46.30
30290;DHT22;17105;55.652;37.710;2023-04-25T00:26:06;15.50;46.30
30290;DHT22;17105;55.652;37.710;2023-04-25T00:26:42;15.40;46.40
30290;DHT22;17105;55.652;37.710;2023-04-25T00:27:16;15.40;46.20
30290;DHT22;17105;55.652;37.710;2023-04-25T00:27:51;15.40;46.20
30290;DHT22;17105;55.652;37.710;2023-04-25T00:28:26;15.40;46.20
30290;DHT22;17105;55.652;37.710;2023-04-25T00:28:59;15.50;46.20
30290;DHT22;17105;55.652;37.710;2023-04-25T00:29:33;15.50;46.20
30290;DHT22;17105;55.652;37.710;2023-04-25T00:30:10;15.50;46.20
30290;DHT22;17105;55.652;37.710;2023-04-25T00:30:45;15.50;46.10
30290;DHT22;17105;55.652;37.710;2023-04-25T00:31:19;15.50;46.10
30290;DHT22;17105;55.652;37.710;2023-04-25T00:31:54;15.50;46.00
30290;DHT22;17105;55.652;37.710;2023-04-25T00:32:28;15.50;46.00
30290;DHT22;17105;55.652;37.710;2023-04-25T00:33:02;15.50;46.10
30290;DHT22;17105;55.652;37.710;2023-04-25T00:33:37;15.60;46.20
30290;DHT22;17105;55.652;37.710;2023-04-25T00:34:13;15.60;46.30
30290;DHT22;17105;55.652;37.710;2023-04-25T00:34:48;15.60;46.40
30290;DHT22;17105;55.652;37.710;2023-04-25T00:35:21;15.60;46.20
30290;DHT22;17105;55.652;37.710;2023-04-25T00:35:58;15.60;46.20
30290;DHT22;17105;55.652;37.710;2023-04-25T00:36:32;15.60;46.30
30290;DHT22;17105;55.652;37.710;2023-04-25T00:37:07;15.60;46.30
30290;DHT22;17105;55.652;37.710;2023-04-25T00:37:40;15.60;46.40
30290;DHT22;17105;55.652;37.710;2023-04-25T00:38:15;15.60;46.40
30290;DHT22;17105;55.652;37.710;2023-04-25T00:38:50;15.60;47.00
30290;DHT22;17105;55.652;37.710;2023-04-25T00:39:23;15.60;46.30
30290;DHT22;17105;55.652;37.710;2023-04-25T00:39:58;15.60;46.30
30290;DHT22;17105;55.652;37.710;2023-04-25T00:40:32;15.60;46.50
30290;DHT22;17105;55.652;37.710;2023-04-25T00:41:07;15.60;46.40
30290;DHT22;17105;55.652;37.710;2023-04-25T00:41:42;15.60;46.40
30290;DHT22;17105;55.652;37.710;2023-04-25T00:42:16;15.60;46.30
30290;DHT22;17105;55.652;37.710;2023-04-25T00:42:54;15.60;46.30
30290;DHT22;17105;55.652;37.710;2023-04-25T00:43:28;15.60;46.30
30290;DHT22;17105;55.652;37.710;2023-04-25T00:44:04;15.60;46.30
30290;DHT22;17105;55.652;37.710;2023-04-25T00:44:40;15.60;46.20
30290;DHT22;17105;55.652;37.710;2023-04-25T00:45:15;15.70;46.30
30290;DHT22;17105;55.652;37.710;2023-04-25T00:45:51;15.60;46.20
30290;DHT22;17105;55.652;37.710;2023-04-25T00:46:26;15.70;46.30
30290;DHT22;17105;55.652;37.710;2023-04-25T00:47:00;15.70;46.30
30290;DHT22;17105;55.652;37.710;2023-04-25T00:47:36;15.70;46.30
30290;DHT22;17105;55.652;37.710;2023-04-25T00:48:12;15.70;46.80
30290;DHT22;17105;55.652;37.710;2023-04-25T00:48:47;15.70;46.20
30290;DHT22;17105;55.652;37.710;2023-04-25T00:49:21;15.70;46.20
30290;DHT22;17105;55.652;37.710;2023-04-25T00:49:55;15.70;46.20
30290;DHT22;17105;55.652;37.710;2023-04-25T00:50:28;15.70;46.20
30290;DHT22;17105;55.652;37.710;2023-04-25T00:51:03;15.70;46.20
30290;DHT22;17105;55.652;37.710;2023-04-25T00:51:37;15.80;46.40
30290;DHT22;17105;55.652;37.710;2023-04-25T00:52:11;15.70;46.40
30290;DHT22;17105;55.652;37.710;2023-04-25T00:52:45;15.80;46.50
30290;DHT22;17105;55.652;37.710;2023-04-25T00:53:19;15.80;46.50
30290;DHT22;17105;55.652;37.710;2023-04-25T00:53:54;15.80;46.50
30290;DHT22;17105;55.652;37.710;2023-04-25T00:54:29;15.80;46.50
30290;DHT22;17105;55.652;37.710;2023-04-25T00:55:05;15.90;46.60
30290;DHT22;17105;55.652;37.710;2023-04-25T00:55:39;15.90;46.60
30290;DHT22;17105;55.652;37.710;2023-04-25T00:56:13;15.90;46.60
30290;DHT22;17105;55.652;37.710;2023-04-25T00:56:48;15.90;46.70
30290;DHT22;17105;55.652;37.710;2023-04-25T00:57:22;15.90;46.70
30290;DHT22;17105;55.652;37.710;2023-04-25T00:57:56;15.90;46.80
30290;DHT22;17105;55.652;37.710;2023-04-25T00:58:31;15.90;46.90
30290;DHT22;17105;55.652;37.710;2023-04-25T00:59:05;15.90;47.10
30290;DHT22;17105;55.652;37.710;2023-04-25T00:59:45;15.90;47.20
30290;DHT22;17105;55.652;37.710;2023-04-25T01:00:19;15.90;47.80
30290;DHT22;17105;55.652;37.710;2023-04-25T01:00:56;15.90;47.40
30290;DHT22;17105;55.652;37.710;2023-04-25T01:01:30;15.80;47.20
30290;DHT22;17105;55.652;37.710;2023-04-25T01:02:04;15.80;47.20
30290;DHT22;17105;55.652;37.710;2023-04-25T01:02:37;15.80;47.30
30290;DHT22;17105;55.652;37.710;2023-04-25T01:03:11;15.80;47.30
30290;DHT22;17105;55.652;37.710;2023-04-25T01:03:46;15.80;47.30
30290;DHT22;17105;55.652;37.710;2023-04-25T01:04:23;15.70;47.20
30290;DHT22;17105;55.652;37.710;2023-04-25T01:04:56;15.70;47.20
30290;DHT22;17105;55.652;37.710;2023-04-25T01:05:31;15.70;47.10
30290;DHT22;17105;55.652;37.710;2023-04-25T01:06:06;15.70;47.10
30290;DHT22;17105;55.652;37.710;2023-04-25T01:06:40;15.70;47.30
30290;DHT22;17105;55.652;37.710;2023-04-25T01:07:13;15.70;47.40
30290;DHT22;17105;55.652;37.710;2023-04-25T01:07:47;15.60;47.20
30290;DHT22;17105;55.652;37.710;2023-04-25T01:08:22;15.60;47.20
30290;DHT22;17105;55.652;37.710;2023-04-25T01:08:57;15.60;47.20
30290;DHT22;17105;55.652;37.710;2023-04-25T01:09:32;15.60;47.10
30290;DHT22;17105;55.652;37.710;2023-04-25T01:10:07;15.70;47.20
30290;DHT22;17105;55.652;37.710;2023-04-25T01:10:43;15.60;47.10
30290;DHT22;17105;55.652;37.710;2023-04-25T01:11:17;15.70;47.10
30290;DHT22;17105;55.652;37.710;2023-04-25T01:11:51;15.70;47.20
30290;DHT22;17105;55.652;37.710;2023-04-25T01:12:24;15.60;47.10
30290;DHT22;17105;55.652;37.710;2023-04-25T01:12:59;15.70;47.10
30290;DHT22;17105;55.652;37.710;2023-04-25T01:13:33;15.70;47.10
30290;DHT22;17105;55.652;37.710;2023-04-25T01:14:07;15.70;47.20
30290;DHT22;17105;55.652;37.710;2023-04-25T01:14:41;15.70;47.40
30290;DHT22;17105;55.652;37.710;2023-04-25T01:15:16;15.70;47.50
30290;DHT22;17105;55.652;37.710;2023-04-25T01:15:50;15.70;47.60
30290;DHT22;17105;55.652;37.710;2023-04-25T01:16:25;15.70;47.70
30290;DHT22;17105;55.652;37.710;2023-04-25T01:16:59;15.70;47.70
30290;DHT22;17105;55.652;37.710;2023-04-25T01:17:34;15.70;47.80
30290;DHT22;17105;55.652;37.710;2023-04-25T01:18:09;15.70;47.70
30290;DHT22;17105;55.652;37.710;2023-04-25T01:18:42;15.70;47.80
30290;DHT22;17105;55.652;37.710;2023-04-25T01:19:17;15.70;47.70
30290;DHT22;17105;55.652;37.710;2023-04-25T01:19:51;15.70;47.70
30290;DHT22;17105;55.652;37.710;2023-04-25T01:20:25;15.70;47.90
30290;DHT22;17105;55.652;37.710;2023-04-25T01:21:09;15.70;48.00
30290;DHT22;17105;55.652;37.710;2023-04-25T01:21:44;15.70;48.20
30290;DHT22;17105;55.652;37.710;2023-04-25T01:22:18;15.70;48.20
30290;DHT22;17105;55.652;37.710;2023-04-25T01:22:52;15.70;48.30
30290;DHT22;17105;55.652;37.710;2023-04-25T01:23:28;15.70;48.20
30290;DHT22;17105;55.652;37.710;2023-04-25T01:24:03;15.60;48.20
30290;DHT22;17105;55.652;37.710;2023-04-25T01:24:38;15.60;48.10
30290;DHT22;17105;55.652;37.710;2023-04-25T01:25:13;15.60;48.10
30290;DHT22;17105;55.652;37.710;2023-04-25T01:25:49;15.60;48.10
30290;DHT22;17105;55.652;37.710;2023-04-25T01:26:24;15.60;48.90
30290;DHT22;17105;55.652;37.710;2023-04-25T01:26:59;15.60;48.40
30290;DHT22;17105;55.652;37.710;2023-04-25T01:27:33;15.60;48.50
30290;DHT22;17105;55.652;37.710;2023-04-25T01:28:06;15.60;48.70
30290;DHT22;17105;55.652;37.710;2023-04-25T01:28:41;15.60;48.80
30290;DHT22;17105;55.652;37.710;2023-04-25T01:29:16;15.60;48.80
30290;DHT22;17105;55.652;37.710;2023-04-25T01:29:50;15.60;48.80
30290;DHT22;17105;55.652;37.710;2023-04-25T01:30:26;15.60;48.80
30290;DHT22;17105;55.652;37.710;2023-04-25T01:31:01;15.60;48.70
30290;DHT22;17105;55.652;37.710;2023-04-25T01:31:35;15.60;48.70
30290;DHT22;17105;55.652;37.710;2023-04-25T01:32:11;15.60;48.70
30290;DHT22;17105;55.652;37.710;2023-04-25T01:32:45;15.60;48.70
30290;DHT22;17105;55.652;37.710;2023-04-25T01:33:23;15.50;48.70
30290;DHT22;17105;55.652;37.710;2023-04-25T01:33:57;15.50;48.80
30290;DHT22;17105;55.652;37.710;2023-04-25T01:34:34;15.50;48.80
30290;DHT22;17105;55.652;37.710;2023-04-25T01:35:10;15.50;48.80
30290;DHT22;17105;55.652;37.710;2023-04-25T01:35:44;15.50;48.80
30290;DHT22;17105;55.652;37.710;2023-04-25T01:36:20;15.50;48.80
30290;DHT22;17105;55.652;37.710;2023-04-25T01:36:54;15.50;48.90
30290;DHT22;17105;55.652;37.710;2023-04-25T01:37:29;15.50;49.00
30290;DHT22;17105;55.652;37.710;2023-04-25T01:38:03;15.50;49.00
30290;DHT22;17105;55.652;37.710;2023-04-25T01:38:38;15.50;49.10
30290;DHT22;17105;55.652;37.710;2023-04-25T01:39:14;15.50;49.10
30290;DHT22;17105;55.652;37.710;2023-04-25T01:39:49;15.50;49.20
30290;DHT22;17105;55.652;37.710;2023-04-25T01:40:24;15.50;49.20
30290;DHT22;17105;55.652;37.710;2023-04-25T01:41:00;15.50;49.20
30290;DHT22;17105;55.652;37.710;2023-04-25T01:41:34;15.50;49.30
30290;DHT22;17105;55.652;37.710;2023-04-25T01:42:08;15.40;49.40
30290;DHT22;17105;55.652;37.710;2023-04-25T01:42:44;15.40;49.40
30290;DHT22;17105;55.652;37.710;2023-04-25T01:43:18;15.40;49.50
30290;DHT22;17105;55.652;37.710;2023-04-25T01:43:55;15.50;49.60
30290;DHT22;17105;55.652;37.710;2023-04-25T01:44:29;15.40;49.60
30290;DHT22;17105;55.652;37.710;2023-04-25T01:45:03;15.40;49.60
30290;DHT22;17105;55.652;37.710;2023-04-25T01:45:39;15.40;50.10
30290;DHT22;17105;55.652;37.710;2023-04-25T01:46:16;15.40;49.70
30290;DHT22;17105;55.652;37.710;2023-04-25T01:46:50;15.40;49.80
30290;DHT22;17105;55.652;37.710;2023-04-25T01:47:23;15.40;49.80
30290;DHT22;17105;55.652;37.710;2023-04-25T01:47:59;15.40;49.80
30290;DHT22;17105;55.652;37.710;2023-04-25T01:48:32;15.40;49.80
30290;DHT22;17105;55.652;37.710;2023-04-25T01:49:07;15.40;49.80
30290;DHT22;17105;55.652;37.710;2023-04-25T01:49:42;15.40;49.90
30290;DHT22;17105;55.652;37.710;2023-04-25T01:50:18;15.40;49.90
30290;DHT22;17105;55.652;37.710;2023-04-25T01:50:53;15.40;49.90
30290;DHT22;17105;55.652;37.710;2023-04-25T01:51:28;15.40;49.90
30290;DHT22;17105;55.652;37.710;2023-04-25T01:52:03;15.40;49.90
30290;DHT22;17105;55.652;37.710;2023-04-25T01:52:38;15.40;49.90
30290;DHT22;17105;55.652;37.710;2023-04-25T01:53:13;15.40;50.00
30290;DHT22;17105;55.652;37.710;2023-04-25T01:53:50;15.40;50.00
30290;DHT22;17105;55.652;37.710;2023-04-25T01:54:24;15.40;50.00
30290;DHT22;17105;55.652;37.710;2023-04-25T01:55:01;15.40;50.00
30290;DHT22;17105;55.652;37.710;2023-04-25T01:55:38;15.40;50.10
30290;DHT22;17105;55.652;37.710;2023-04-25T01:56:15;15.40;50.00
30290;DHT22;17105;55.652;37.710;2023-04-25T01:56:52;15.40;50.20
30290;DHT22;17105;55.652;37.710;2023-04-25T01:57:26;15.40;50.10
30290;DHT22;17105;55.652;37.710;2023-04-25T01:58:01;15.40;50.10
30290;DHT22;17105;55.652;37.710;2023-04-25T01:58:57;15.30;50.10
30290;DHT22;17105;55.652;37.710;2023-04-25T01:59:58;15.40;50.20
30290;DHT22;17105;55.652;37.710;2023-04-25T02:00:46;15.40;50.30
30290;DHT22;17105;55.652;37.710;2023-04-25T02:01:20;15.40;50.20
30290;DHT22;17105;55.652;37.710;2023-04-25T02:02:14;15.40;50.20
30290;DHT22;17105;55.652;37.710;2023-04-25T02:02:48;15.40;50.20
30290;DHT22;17105;55.652;37.710;2023-04-25T02:03:42;15.40;50.30
30290;DHT22;17105;55.652;37.710;2023-04-25T02:04:25;15.40;50.30
30290;DHT22;17105;55.652;37.710;2023-04-25T02:05:00;15.30;50.30
30290;DHT22;17105;55.652;37.710;2023-04-25T02:05:35;15.40;50.40
30290;DHT22;17105;55.652;37.710;2023-04-25T02:06:12;15.40;50.50
30290;DHT22;17105;55.652;37.710;2023-04-25T02:06:50;15.30;50.50
30290;DHT22;17105;55.652;37.710;2023-04-25T02:07:26;15.30;50.50
30290;DHT22;17105;55.652;37.710;2023-04-25T02:07:59;15.30;50.60
30290;DHT22;17105;55.652;37.710;2023-04-25T02:08:33;15.30;50.60
30290;DHT22;17105;55.652;37.710;2023-04-25T02:09:06;15.30;50.70
30290;DHT22;17105;55.652;37.710;2023-04-25T02:09:46;15.30;50.80
30290;DHT22;17105;55.652;37.710;2023-04-25T02:10:22;15.30;51.00
30290;DHT22;17105;55.652;37.710;2023-04-25T02:11:10;15.30;51.10
30290;DHT22;17105;55.652;37.710;2023-04-25T02:12:09;15.30;51.30
30290;DHT22;17105;55.652;37.710;2023-04-25T02:13:03;15.30;51.30
30290;DHT22;17105;55.652;37.710;2023-04-25T02:13:59;15.30;51.40
30290;DHT22;17105;55.652;37.710;2023-04-25T02:14:43;15.30;51.40
30290;DHT22;17105;55.652;37.710;2023-04-25T02:15:21;15.30;51.40
30290;DHT22;17105;55.652;37.710;2023-04-25T02:16:18;15.30;51.40
30290;DHT22;17105;55.652;37.710;2023-04-25T02:16:53;15.30;51.40
30290;DHT22;17105;55.652;37.710;2023-04-25T02:17:27;15.30;51.40
30290;DHT22;17105;55.652;37.710;2023-04-25T02:18:02;15.30;51.50
30290;DHT22;17105;55.652;37.710;2023-04-25T02:18:39;15.30;51.60
30290;DHT22;17105;55.652;37.710;2023-04-25T02:19:12;15.30;51.50
30290;DHT22;17105;55.652;37.710;2023-04-25T02:19:45;15.30;51.60
30290;DHT22;17105;55.652;37.710;2023-04-25T02:20:22;15.30;51.70
30290;DHT22;17105;55.652;37.710;2023-04-25T02:20:55;15.30;51.80
30290;DHT22;17105;55.652;37.710;2023-04-25T02:21:30;15.30;51.80
30290;DHT22;17105;55.652;37.710;2023-04-25T02:22:05;15.30;51.90
30290;DHT22;17105;55.652;37.710;2023-04-25T02:22:39;15.30;52.00
30290;DHT22;17105;55.652;37.710;2023-04-25T02:23:13;15.30;52.00
30290;DHT22;17105;55.652;37.710;2023-04-25T02:23:49;15.30;52.10
30290;DHT22;17105;55.652;37.710;2023-04-25T02:24:26;15.30;52.10
30290;DHT22;17105;55.652;37.710;2023-04-25T02:25:01;15.30;52.30
30290;DHT22;17105;55.652;37.710;2023-04-25T02:25:37;15.30;52.40
30290;DHT22;17105;55.652;37.710;2023-04-25T02:26:11;15.30;52.40
30290;DHT22;17105;55.652;37.710;2023-04-25T02:26:47;15.30;52.30
30290;DHT22;17105;55.652;37.710;2023-04-25T02:27:22;15.30;52.30
30290;DHT22;17105;55.652;37.710;2023-04-25T02:27:56;15.30;52.20
30290;DHT22;17105;55.652;37.710;2023-04-25T02:28:32;15.30;52.30
30290;DHT22;17105;55.652;37.710;2023-04-25T02:29:09;15.30;52.30
30290;DHT22;17105;55.652;37.710;2023-04-25T02:29:44;15.30;52.30
30290;DHT22;17105;55.652;37.710;2023-04-25T02:30:20;15.30;52.30
30290;DHT22;17105;55.652;37.710;2023-04-25T02:30:54;15.30;52.40
30290;DHT22;17105;55.652;37.710;2023-04-25T02:31:29;15.30;52.60
30290;DHT22;17105;55.652;37.710;2023-04-25T02:32:04;15.40;52.70
30290;DHT22;17105;55.652;37.710;2023-04-25T02:32:37;15.40;52.60
30290;DHT22;17105;55.652;37.710;2023-04-25T02:33:11;15.40;52.60
30290;DHT22;17105;55.652;37.710;2023-04-25T02:33:46;15.40;52.60
30290;DHT22;17105;55.652;37.710;2023-04-25T02:34:20;15.40;52.60
30290;DHT22;17105;55.652;37.710;2023-04-25T02:34:55;15.40;52.70
30290;DHT22;17105;55.652;37.710;2023-04-25T02:35:32;15.40;52.60
30290;DHT22;17105;55.652;37.710;2023-04-25T02:36:06;15.40;52.60
30290;DHT22;17105;55.652;37.710;2023-04-25T02:36:42;15.40;52.70
30290;DHT22;17105;55.652;37.710;2023-04-25T02:37:18;15.40;52.70
30290;DHT22;17105;55.652;37.710;2023-04-25T02:37:52;15.40;52.70
30290;DHT22;17105;55.652;37.710;2023-04-25T02:38:28;15.40;52.80
30290;DHT22;17105;55.652;37.710;2023-04-25T02:39:01;15.40;52.80
30290;DHT22;17105;55.652;37.710;2023-04-25T02:39:36;15.40;52.90
30290;DHT22;17105;55.652;37.710;2023-04-25T02:40:12;15.40;52.90
30290;DHT22;17105;55.652;37.710;2023-04-25T02:40:46;15.40;53.00
30290;DHT22;17105;55.652;37.710;2023-04-25T02:41:21;15.40;53.00
30290;DHT22;17105;55.652;37.710;2023-04-25T02:41:55;15.40;52.90
30290;DHT22;17105;55.652;37.710;2023-04-25T02:42:29;15.40;52.80
30290;DHT22;17105;55.652;37.710;2023-04-25T02:43:04;15.40;52.70
30290;DHT22;17105;55.652;37.710;2023-04-25T02:43:38;15.40;52.70
30290;DHT22;17105;55.652;37.710;2023-04-25T02:44:12;15.50;52.80
30290;DHT22;17105;55.652;37.710;2023-04-25T02:44:50;15.50;52.80
30290;DHT22;17105;55.652;37.710;2023-04-25T02:45:23;15.50;52.60
30290;DHT22;17105;55.652;37.710;2023-04-25T02:45:57;15.50;52.40
30290;DHT22;17105;55.652;37.710;2023-04-25T02:46:33;15.50;52.20
30290;DHT22;17105;55.652;37.710;2023-04-25T02:47:12;15.50;52.10
30290;DHT22;17105;55.652;37.710;2023-04-25T02:47:46;15.50;51.90
30290;DHT22;17105;55.652;37.710;2023-04-25T02:48:23;15.50;52.40
30290;DHT22;17105;55.652;37.710;2023-04-25T02:48:58;15.50;51.60
30290;DHT22;17105;55.652;37.710;2023-04-25T02:49:32;15.50;51.50
30290;DHT22;17105;55.652;37.710;2023-04-25T02:50:07;15.60;51.40
30290;DHT22;17105;55.652;37.710;2023-04-25T02:50:47;15.60;51.40
30290;DHT22;17105;55.652;37.710;2023-04-25T02:51:21;15.60;51.30
30290;DHT22;17105;55.652;37.710;2023-04-25T02:51:56;15.60;51.30
30290;DHT22;17105;55.652;37.710;2023-04-25T02:52:31;15.60;51.30
30290;DHT22;17105;55.652;37.710;2023-04-25T02:53:18;15.50;51.40
30290;DHT22;17105;55.652;37.710;2023-04-25T02:53:56;15.50;51.40
30290;DHT22;17105;55.652;37.710;2023-04-25T02:54:30;15.60;51.40
30290;DHT22;17105;55.652;37.710;2023-04-25T02:55:06;15.60;51.40
30290;DHT22;17105;55.652;37.710;2023-04-25T02:55:42;15.60;51.30
30290;DHT22;17105;55.652;37.710;2023-04-25T02:56:15;15.60;51.20
30290;DHT22;17105;55.652;37.710;2023-04-25T02:56:48;15.60;51.20
30290;DHT22;17105;55.652;37.710;2023-04-25T02:57:29;15.60;51.20
30290;DHT22;17105;55.652;37.710;2023-04-25T02:58:03;15.70;51.20
30290;DHT22;17105;55.652;37.710;2023-04-25T02:58:48;15.60;51.10
30290;DHT22;17105;55.652;37.710;2023-04-25T02:59:22;15.70;51.10
30290;DHT22;17105;55.652;37.710;2023-04-25T02:59:55;15.70;51.00
30290;DHT22;17105;55.652;37.710;2023-04-25T03:00:31;15.80;51.00
30290;DHT22;17105;55.652;37.710;2023-04-25T03:01:05;15.80;51.20
30290;DHT22;17105;55.652;37.710;2023-04-25T03:01:38;15.80;51.00
30290;DHT22;17105;55.652;37.710;2023-04-25T03:02:13;15.80;51.00
30290;DHT22;17105;55.652;37.710;2023-04-25T03:02:47;15.80;51.00
30290;DHT22;17105;55.652;37.710;2023-04-25T03:03:22;15.80;50.90
30290;DHT22;17105;55.652;37.710;2023-04-25T03:03:58;15.80;50.90
30290;DHT22;17105;55.652;37.710;2023-04-25T03:04:33;15.80;50.90
30290;DHT22;17105;55.652;37.710;2023-04-25T03:05:07;15.80;50.80
30290;DHT22;17105;55.652;37.710;2023-04-25T03:05:43;15.90;50.80
30290;DHT22;17105;55.652;37.710;2023-04-25T03:06:17;15.90;50.90
30290;DHT22;17105;55.652;37.710;2023-04-25T03:06:51;15.90;50.80
30290;DHT22;17105;55.652;37.710;2023-04-25T03:07:26;15.90;50.80
30290;DHT22;17105;55.652;37.710;2023-04-25T03:08:02;15.90;50.90
30290;DHT22;17105;55.652;37.710;2023-04-25T03:08:38;15.90;50.80
30290;DHT22;17105;55.652;37.710;2023-04-25T03:09:13;16.00;50.80
30290;DHT22;17105;55.652;37.710;2023-04-25T03:09:46;16.00;50.80
30290;DHT22;17105;55.652;37.710;2023-04-25T03:10:19;16.00;50.70
30290;DHT22;17105;55.652;37.710;2023-04-25T03:10:54;16.00;50.70
30290;DHT22;17105;55.652;37.710;2023-04-25T03:11:29;16.00;50.60
30290;DHT22;17105;55.652;37.710;2023-04-25T03:12:05;16.00;50.60
30290;DHT22;17105;55.652;37.710;2023-04-25T03:12:40;16.00;50.60
30290;DHT22;17105;55.652;37.710;2023-04-25T03:13:15;16.10;50.80
30290;DHT22;17105;55.652;37.710;2023-04-25T03:13:48;16.00;50.70
30290;DHT22;17105;55.652;37.710;2023-04-25T03:14:25;16.00;50.70
30290;DHT22;17105;55.652;37.710;2023-04-25T03:14:59;16.10;50.70
30290;DHT22;17105;55.652;37.710;2023-04-25T03:15:33;16.00;50.70
30290;DHT22;17105;55.652;37.710;2023-04-25T03:16:08;16.10;50.80
30290;DHT22;17105;55.652;37.710;2023-04-25T03:16:41;16.10;50.80
30290;DHT22;17105;55.652;37.710;2023-04-25T03:17:15;16.10;50.90
30290;DHT22;17105;55.652;37.710;2023-04-25T03:17:49;16.10;50.90
30290;DHT22;17105;55.652;37.710;2023-04-25T03:18:23;16.10;50.80
30290;DHT22;17105;55.652;37.710;2023-04-25T03:18:59;16.10;50.80
30290;DHT22;17105;55.652;37.710;2023-04-25T03:19:34;16.10;50.80
30290;DHT22;17105;55.652;37.710;2023-04-25T03:20:10;16.10;50.80
30290;DHT22;17105;55.652;37.710;2023-04-25T03:20:45;16.10;50.90
30290;DHT22;17105;55.652;37.710;2023-04-25T03:21:21;16.10;50.90
30290;DHT22;17105;55.652;37.710;2023-04-25T03:21:56;16.10;50.90
30290;DHT22;17105;55.652;37.710;2023-04-25T03:22:30;16.20;50.90
30290;DHT22;17105;55.652;37.710;2023-04-25T03:23:06;16.20;50.80
30290;DHT22;17105;55.652;37.710;2023-04-25T03:23:40;16.20;50.80
30290;DHT22;17105;55.652;37.710;2023-04-25T03:24:14;16.20;50.80
30290;DHT22;17105;55.652;37.710;2023-04-25T03:24:50;16.20;50.70
30290;DHT22;17105;55.652;37.710;2023-04-25T03:25:24;16.30;51.10
30290;DHT22;17105;55.652;37.710;2023-04-25T03:25:58;16.20;50.90
30290;DHT22;17105;55.652;37.710;2023-04-25T03:26:34;16.20;50.90
30290;DHT22;17105;55.652;37.710;2023-04-25T03:27:08;16.30;50.90
30290;DHT22;17105;55.652;37.710;2023-04-25T03:27:41;16.30;50.90
30290;DHT22;17105;55.652;37.710;2023-04-25T03:28:16;16.30;50.90
30290;DHT22;17105;55.652;37.710;2023-04-25T03:28:50;16.30;50.90
30290;DHT22;17105;55.652;37.710;2023-04-25T03:29:25;16.30;50.80
30290;DHT22;17105;55.652;37.710;2023-04-25T03:30:03;16.30;50.80
30290;DHT22;17105;55.652;37.710;2023-04-25T03:30:36;16.40;51.00
30290;DHT22;17105;55.652;37.710;2023-04-25T03:31:10;16.40;51.00
30290;DHT22;17105;55.652;37.710;2023-04-25T03:31:45;16.40;51.00
30290;DHT22;17105;55.652;37.710;2023-04-25T03:32:18;16.40;51.00
30290;DHT22;17105;55.652;37.710;2023-04-25T03:32:52;16.40;51.00
30290;DHT22;17105;55.652;37.710;2023-04-25T03:33:29;16.40;51.00
30290;DHT22;17105;55.652;37.710;2023-04-25T03:34:03;16.40;51.00
30290;DHT22;17105;55.652;37.710;2023-04-25T03:34:36;16.40;51.00
30290;DHT22;17105;55.652;37.710;2023-04-25T03:35:12;16.50;51.10
30290;DHT22;17105;55.652;37.710;2023-04-25T03:35:46;16.50;51.00
30290;DHT22;17105;55.652;37.710;2023-04-25T03:36:20;16.50;51.00
30290;DHT22;17105;55.652;37.710;2023-04-25T03:37:28;16.50;50.90
30290;DHT22;17105;55.652;37.710;2023-04-25T03:38:02;16.60;51.10
30290;DHT22;17105;55.652;37.710;2023-04-25T03:38:44;16.60;51.00
30290;DHT22;17105;55.652;37.710;2023-04-25T03:39:21;16.70;50.80
30290;DHT22;17105;55.652;37.710;2023-04-25T03:39:56;16.70;50.70
30290;DHT22;17105;55.652;37.710;2023-04-25T03:40:41;16.80;50.70
30290;DHT22;17105;55.652;37.710;2023-04-25T03:41:22;16.80;50.70
30290;DHT22;17105;55.652;37.710;2023-04-25T03:42:03;16.80;50.60